Time;durP1;ratioP1;P1;durP2;ratioP2;P2;SDS_P1;SDS_P2;PMS_P1;PMS_P2;Temp;Humidity;BMP_temperature;BMP_pressure;BME280_temperature;BME280_humidity;BME280_pressure;Samples;Min_cycle;Max_cycle;Signal;HPM_P1;HPM_P2
2023/10/07 00:02:20;;;;;;;11.73;5.40;;;;;;;15.30;55.95;96163.38;5016670;28;20109;-77
2023/10/07 00:04:46;;;;;;;12.65;4.75;;;;;;;15.22;56.60;96166.63;4992856;28;20084;-77
2023/10/07 00:07:12;;;;;;;14.63;4.75;;;;;;;15.09;56.51;96137.88;5006603;28;20038;-78
2023/10/07 00:09:44;;;;;;;9.25;4.25;;;;;;;15.30;56.69;96167.91;5010506;28;20045;-78
2023/10/07 00:12:16;;;;;;;13.07;5.53;;;;;;;15.22;56.51;96153.28;5019422;28;20056;-77
2023/10/07 00:14:42;;;;;;;13.07;5.07;;;;;;;15.25;56.75;96163.41;5020347;28;20042;-77
2023/10/07 00:17:16;;;;;;;11.63;4.90;;;;;;;15.26;56.47;96159.63;4989486;28;20501;-77
2023/10/07 00:19:42;;;;;;;13.40;5.50;;;;;;;15.17;56.74;96164.00;5016574;28;20191;-78
2023/10/07 00:22:13;;;;;;;12.52;5.13;;;;;;;15.06;57.22;96163.28;5018172;28;20042;-77
2023/10/07 00:24:45;;;;;;;12.75;4.68;;;;;;;14.92;57.24;96134.78;5027878;28;20048;-77
2023/10/07 00:27:26;;;;;;;9.57;4.78;;;;;;;14.78;57.43;96115.13;5011473;28;20052;-77
2023/10/07 00:29:54;;;;;;;13.43;5.38;;;;;;;14.90;57.51;96139.59;5002679;28;20052;-77
2023/10/07 00:32:30;;;;;;;21.45;5.80;;;;;;;14.84;57.72;96138.03;5024628;28;20116;-77
2023/10/07 00:34:59;;;;;;;12.60;5.70;;;;;;;14.75;57.72;96129.81;5024430;28;20079;-77
2023/10/07 00:37:25;;;;;;;13.73;4.63;;;;;;;14.83;58.18;96137.25;5011191;28;20038;-77
2023/10/07 00:39:52;;;;;;;12.32;5.55;;;;;;;14.53;58.21;96098.19;5025414;28;20056;-77
2023/10/07 00:42:19;;;;;;;10.55;4.93;;;;;;;14.81;58.09;96133.25;5043304;28;20037;-77
2023/10/07 00:44:47;;;;;;;24.52;5.80;;;;;;;14.57;58.51;96125.13;5038769;28;20041;-77
2023/10/07 00:47:13;;;;;;;14.90;5.47;;;;;;;14.43;58.59;96102.75;5033572;28;20049;-77
2023/10/07 00:49:42;;;;;;;15.20;5.30;;;;;;;14.61;58.62;96126.97;5006868;28;20038;-77
2023/10/07 00:52:13;;;;;;;10.77;4.82;;;;;;;14.49;58.84;96112.34;5029838;28;20045;-77
2023/10/07 00:54:51;;;;;;;15.25;5.10;;;;;;;14.39;58.59;96093.72;5014553;28;20378;-78
2023/10/07 00:57:34;;;;;;;10.35;4.90;;;;;;;14.43;58.69;96105.44;5005567;28;20033;-77
2023/10/07 01:00:12;;;;;;;13.38;5.30;;;;;;;14.54;58.53;96120.31;5018217;28;20033;-77
2023/10/07 01:02:38;;;;;;;10.48;5.03;;;;;;;14.27;58.53;96080.66;5025426;28;20054;-77
2023/10/07 01:05:13;;;;;;;11.02;5.40;;;;;;;14.51;58.88;96115.53;5020085;28;20040;-77
2023/10/07 01:07:41;;;;;;;14.32;4.75;;;;;;;14.26;58.54;96073.75;5003615;28;20053;-77
2023/10/07 01:12:39;;;;;;;13.07;5.32;;;;;;;14.26;58.66;96087.88;5035650;28;20672;-77
2023/10/07 01:15:12;;;;;;;11.43;5.10;;;;;;;14.36;58.72;96096.88;5035819;28;20045;-77
2023/10/07 01:17:41;;;;;;;11.90;4.97;;;;;;;14.40;58.82;96128.13;5016571;28;20131;-77
2023/10/07 01:20:08;;;;;;;12.18;4.88;;;;;;;14.30;58.78;96120.13;5017763;28;20132;-77
2023/10/07 01:22:42;;;;;;;11.60;5.57;;;;;;;14.12;58.82;96086.84;5008670;28;20042;-77
2023/10/07 01:25:09;;;;;;;13.05;5.82;;;;;;;13.80;58.86;96038.47;5000200;28;20045;-77
2023/10/07 01:27:45;;;;;;;11.98;5.60;;;;;;;14.20;58.77;96112.97;5019780;28;20355;-77
2023/10/07 01:30:16;;;;;;;12.52;5.03;;;;;;;14.39;58.64;96139.09;4994860;28;20037;-77
2023/10/07 01:32:54;;;;;;;13.98;4.40;;;;;;;14.34;58.88;96131.88;5020364;28;20104;-77
2023/10/07 01:35:26;;;;;;;11.15;5.53;;;;;;;14.25;58.83;96144.97;5032567;28;20049;-77
2023/10/07 01:37:59;;;;;;;19.83;5.18;;;;;;;14.23;58.68;96122.31;5017095;28;20052;-77
2023/10/07 01:40:31;;;;;;;14.23;5.78;;;;;;;14.25;58.70;96139.66;4999717;28;20116;-77
2023/10/07 01:42:56;;;;;;;;;;;;;;;14.30;58.99;96139.63;5010751;28;20053;-77
2023/10/07 01:45:22;;;;;;;12.95;5.35;;;;;;;14.04;58.92;96099.97;5019389;28;19917;-77
2023/10/07 01:47:49;;;;;;;16.50;5.70;;;;;;;14.12;58.50;96118.06;5015941;28;20673;-77
2023/10/07 01:50:18;;;;;;;13.82;5.28;;;;;;;14.12;58.23;96134.88;5002217;28;20064;-77
2023/10/07 01:52:48;;;;;;;17.20;5.55;;;;;;;14.19;58.16;96135.38;5006445;28;20060;-77
2023/10/07 01:55:15;;;;;;;19.45;5.47;;;;;;;13.83;58.98;96097.38;4982517;28;20053;-78
2023/10/07 01:57:44;;;;;;;15.10;5.47;;;;;;;13.91;58.68;96107.47;5021048;28;20046;-78
2023/10/07 02:00:11;;;;;;;9.85;4.68;;;;;;;13.91;58.99;96093.34;5023207;28;20585;-77
2023/10/07 02:02:49;;;;;;;13.02;5.38;;;;;;;13.68;58.88;96061.97;5013639;28;20053;-77
2023/10/07 02:05:16;;;;;;;13.10;5.28;;;;;;;13.97;59.20;96118.91;5013286;28;20528;-77
2023/10/07 02:07:43;;;;;;;8.95;5.07;;;;;;;13.71;59.09;96066.75;5030108;28;20551;-77
2023/10/07 02:10:13;;;;;;;16.75;5.32;;;;;;;13.86;59.31;96117.38;5013053;28;20056;-77
2023/10/07 02:12:39;;;;;;;14.50;5.65;;;;;;;13.70;59.48;96091.81;5026061;28;20795;-77
2023/10/07 02:15:08;;;;;;;8.52;5.22;;;;;;;13.78;59.57;96100.06;5011614;28;20060;-77
2023/10/07 02:17:34;;;;;;;16.45;5.63;;;;;;;13.70;59.23;96092.63;5012284;28;20049;-77
2023/10/07 02:20:21;;;;;;;14.63;5.07;;;;;;;13.73;59.56;96117.94;5004174;28;20049;-77
2023/10/07 02:22:45;;;;;;;11.68;5.28;;;;;;;13.61;59.91;96114.75;5019609;28;20104;-77
2023/10/07 02:25:11;;;;;;;15.63;5.55;;;;;;;13.54;59.63;96088.38;5011351;28;20467;-77
2023/10/07 02:27:42;;;;;;;14.77;5.18;;;;;;;13.64;60.12;96115.03;5010987;28;20654;-77
2023/10/07 02:30:19;;;;;;;11.80;5.45;;;;;;;13.63;60.06;96105.44;5026235;28;20045;-77
2023/10/07 02:32:46;;;;;;;14.30;5.50;;;;;;;13.66;59.93;96112.06;4993675;28;20057;-77
2023/10/07 02:35:17;;;;;;;11.68;6.00;;;;;;;13.51;59.93;96097.72;4993718;28;20037;-77
2023/10/07 02:37:49;;;;;;;12.82;5.72;;;;;;;13.62;60.00;96124.34;5014335;28;20583;-77
2023/10/07 02:40:36;;;;;;;10.90;5.55;;;;;;;13.32;60.01;96079.91;5028885;28;20124;-77
2023/10/07 02:43:09;;;;;;;19.60;6.45;;;;;;;13.03;61.12;96087.59;5005826;28;20056;-77
2023/10/07 02:45:42;;;;;;;11.85;5.75;;;;;;;13.14;61.05;96087.34;5002147;28;20055;-77
2023/10/07 02:48:11;;;;;;;14.93;5.78;;;;;;;13.36;60.77;96112.91;5012831;28;20038;-77
2023/10/07 02:50:42;;;;;;;12.70;5.68;;;;;;;13.08;60.80;96064.44;5006330;28;20053;-77
2023/10/07 02:53:15;;;;;;;13.37;6.10;;;;;;;13.28;60.96;96097.47;4989845;28;20073;-77
2023/10/07 02:55:58;;;;;;;13.77;6.10;;;;;;;13.30;60.70;96109.47;4993354;28;20041;-77
2023/10/07 02:58:32;;;;;;;9.80;5.97;;;;;;;13.09;60.99;96094.53;5002957;28;20350;-77
2023/10/07 03:01:11;;;;;;;18.65;6.07;;;;;;;13.26;60.66;96113.75;5012383;28;20038;-77
2023/10/07 03:03:38;;;;;;;18.67;7.65;;;;;;;13.11;60.91;96089.75;5022764;28;20037;-77
2023/10/07 03:06:06;;;;;;;13.18;5.63;;;;;;;13.14;61.18;96106.00;5002041;28;20041;-77
2023/10/07 03:08:41;;;;;;;15.85;5.97;;;;;;;12.98;61.13;96082.25;5030735;28;20049;-77
2023/10/07 03:11:20;;;;;;;15.05;5.30;;;;;;;12.93;60.99;96075.09;5033154;28;20049;-77
2023/10/07 03:13:47;;;;;;;11.20;5.38;;;;;;;13.10;61.14;96107.59;5013219;28;20516;-77
2023/10/07 03:18:47;;;;;;;12.73;5.10;;;;;;;12.89;61.10;96089.97;5028035;28;20029;-77
2023/10/07 03:21:15;;;;;;;16.20;5.82;;;;;;;13.01;61.06;96095.84;4998167;28;20048;-77
2023/10/07 03:23:53;;;;;;;11.75;5.13;;;;;;;13.05;60.97;96115.56;5031117;28;20034;-77
2023/10/07 03:26:22;;;;;;;10.57;6.13;;;;;;;12.85;61.22;96099.56;5009683;28;20053;-77
2023/10/07 03:28:55;;;;;;;19.88;5.75;;;;;;;13.08;61.09;96127.53;5021776;28;20040;-77
2023/10/07 03:31:33;;;;;;;13.65;5.63;;;;;;;13.12;61.14;96131.28;5018579;28;20065;-77
2023/10/07 03:33:58;;;;;;;21.35;6.75;;;;;;;13.16;60.90;96136.91;5026869;28;20116;-77
2023/10/07 03:36:37;;;;;;;15.40;6.00;;;;;;;12.98;61.14;96112.34;5029558;28;20428;-77
2023/10/07 03:42:02;;;;;;;12.02;6.05;;;;;;;12.96;61.66;96127.00;5016162;28;20121;-77
2023/10/07 03:44:31;;;;;;;19.55;6.15;;;;;;;12.46;61.42;96053.22;5017871;28;20157;-77
2023/10/07 03:46:57;;;;;;;18.48;7.68;;;;;;;12.81;61.66;96119.81;5020688;28;20425;-77
2023/10/07 03:49:28;;;;;;;19.58;6.93;;;;;;;12.91;61.50;96122.47;5029988;28;20041;-77
2023/10/07 03:52:12;;;;;;;18.85;6.18;;;;;;;12.49;61.55;96068.66;5012559;28;20030;-76
2023/10/07 03:54:42;;;;;;;19.80;6.78;;;;;;;12.81;61.31;96111.03;5027282;28;20151;-76
2023/10/07 03:57:09;;;;;;;23.42;7.03;;;;;;;12.92;61.64;96133.91;5024554;28;20431;-77
2023/10/07 03:59:36;;;;;;;15.50;7.00;;;;;;;12.91;61.53;96133.13;5006220;28;20199;-77
2023/10/07 04:02:12;;;;;;;18.08;6.65;;;;;;;12.61;61.41;96099.28;5027643;28;20057;-77
2023/10/07 04:04:42;;;;;;;15.90;6.28;;;;;;;12.87;61.79;96136.59;5020705;28;20025;-77
2023/10/07 04:07:08;;;;;;;22.42;6.15;;;;;;;12.69;61.86;96117.38;5025348;28;20342;-77
2023/10/07 04:09:35;;;;;;;17.85;5.75;;;;;;;12.56;61.68;96114.44;5005102;28;20520;-77
2023/10/07 04:12:01;;;;;;;15.80;5.57;;;;;;;12.51;62.00;96130.41;5015619;28;20060;-77
2023/10/07 04:14:30;;;;;;;16.23;5.57;;;;;;;12.12;62.23;96066.19;5015733;28;20041;-77
2023/10/07 04:17:05;;;;;;;12.68;5.68;;;;;;;12.54;62.11;96122.66;5029045;28;20034;-77
2023/10/07 04:19:34;;;;;;;10.27;5.43;;;;;;;12.61;62.17;96149.03;5014859;28;20056;-77
2023/10/07 04:22:00;;;;;;;9.93;4.80;;;;;;;12.64;61.73;96146.66;4999801;28;20050;-77
2023/10/07 04:24:28;;;;;;;9.90;5.15;;;;;;;12.18;61.29;96068.59;5034026;28;20113;-77
2023/10/07 04:26:55;;;;;;;11.73;4.93;;;;;;;12.56;61.40;96115.22;5012729;28;20049;-77
2023/10/07 04:29:24;;;;;;;9.18;4.38;;;;;;;12.62;61.13;96114.19;5002166;28;20045;-77
2023/10/07 04:31:51;;;;;;;13.75;5.78;;;;;;;12.61;60.95;96117.91;5000794;28;20116;-77
2023/10/07 04:34:23;;;;;;;11.55;6.00;;;;;;;12.60;61.02;96116.28;5016349;28;20439;-77
2023/10/07 04:42:36;;;;;;;23.20;7.13;;;;;;;12.57;61.01;96103.53;5017055;28;20064;-77
2023/10/07 04:45:16;;;;;;;16.05;6.50;;;;;;;12.70;60.85;96132.28;5016104;28;20048;-77
2023/10/07 04:47:46;;;;;;;16.45;6.00;;;;;;;12.63;60.94;96121.09;5020776;28;20468;-77
2023/10/07 04:52:40;;;;;;;11.27;5.82;;;;;;;12.69;61.05;96130.69;5018842;28;20033;-77
2023/10/07 04:55:15;;;;;;;14.27;5.97;;;;;;;12.64;61.10;96137.88;5014728;28;20080;-77
2023/10/07 05:03:08;;;;;;;21.50;5.88;;;;;;;12.29;61.34;96082.69;5016362;28;20056;-77
2023/10/07 05:05:33;;;;;;;28.70;6.85;;;;;;;12.64;61.33;96140.53;5033012;28;20482;-77
2023/10/07 05:08:19;;;;;;;23.38;7.72;;;;;;;12.64;61.48;96140.53;5016564;28;20033;-77
2023/10/07 05:10:52;;;;;;;19.75;7.55;;;;;;;12.64;61.42;96149.31;5035152;28;20036;-77
2023/10/07 05:13:18;;;;;;;21.00;7.30;;;;;;;12.53;61.60;96130.91;5010253;28;20137;-77
2023/10/07 05:15:44;;;;;;;23.98;7.68;;;;;;;12.45;61.30;96102.97;5031423;28;20034;-77
2023/10/07 05:18:15;;;;;;;25.70;11.15;;;;;;;12.45;60.76;96107.47;5024958;28;20096;-77
2023/10/07 05:20:46;;;;;;;35.13;11.73;;;;;;;12.70;60.15;96147.47;5024656;28;20061;-77
2023/10/07 05:23:14;;;;;;;27.80;11.15;;;;;;;12.68;59.81;96154.91;5018928;28;20037;-77
2023/10/07 05:25:48;;;;;;;38.88;10.85;;;;;;;12.68;59.54;96160.22;5028347;28;20562;-77
2023/10/07 05:28:20;;;;;;;19.77;8.55;;;;;;;12.58;59.08;96141.59;5032397;28;20038;-77
2023/10/07 05:30:51;;;;;;;24.58;8.63;;;;;;;12.57;59.01;96148.78;5015284;28;20057;-77
2023/10/07 05:33:25;;;;;;;19.92;8.07;;;;;;;12.37;58.80;96104.25;5013909;28;20103;-77
2023/10/07 05:35:53;;;;;;;16.33;7.40;;;;;;;12.77;58.37;96171.97;5028983;28;20476;-77
2023/10/07 05:38:19;;;;;;;26.95;8.13;;;;;;;12.75;58.78;96174.88;4997033;28;20461;-77
2023/10/07 05:40:48;;;;;;;16.08;7.65;;;;;;;12.81;58.23;96175.72;5014216;28;20124;-77
2023/10/07 05:43:14;;;;;;;17.42;7.53;;;;;;;12.69;58.59;96159.97;5031825;28;20477;-78
2023/10/07 05:45:40;;;;;;;24.38;7.97;;;;;;;12.70;58.64;96171.41;5023731;28;20108;-78
2023/10/07 05:48:10;;;;;;;25.02;7.97;;;;;;;12.76;58.99;96175.69;5017597;28;20435;-78
2023/10/07 05:50:36;;;;;;;29.83;9.23;;;;;;;12.56;58.92;96146.38;5031787;28;20044;-77
2023/10/07 05:53:05;;;;;;;16.05;8.38;;;;;;;12.50;59.13;96150.06;5019743;28;20133;-78
2023/10/07 05:55:34;;;;;;;19.52;7.68;;;;;;;12.77;59.27;96190.59;5025323;28;20041;-78
2023/10/07 05:58:04;;;;;;;23.70;7.75;;;;;;;12.69;59.30;96165.28;5017591;28;20578;-78
2023/10/07 06:00:32;;;;;;;18.05;8.07;;;;;;;12.71;59.43;96168.50;5009747;28;20041;-78
2023/10/07 06:03:06;;;;;;;22.90;7.90;;;;;;;12.78;59.07;96160.25;5013666;28;20045;-78
2023/10/07 06:05:33;;;;;;;21.10;8.18;;;;;;;12.73;59.26;96154.94;5011405;28;20513;-78
2023/10/07 06:07:59;;;;;;;20.85;8.18;;;;;;;12.80;59.21;96160.81;5013292;28;20034;-78
2023/10/07 06:10:26;;;;;;;20.10;7.38;;;;;;;13.06;59.02;96189.06;4993251;28;20342;-77
2023/10/07 06:12:54;;;;;;;20.92;7.53;;;;;;;12.89;58.93;96158.44;5008985;28;20042;-77
2023/10/07 06:15:20;;;;;;;17.75;7.25;;;;;;;13.11;58.90;96185.63;4999095;28;20508;-77
2023/10/07 06:17:46;;;;;;;18.58;7.80;;;;;;;13.05;58.83;96168.81;5017669;28;20179;-77
2023/10/07 06:20:15;;;;;;;13.90;7.22;;;;;;;12.94;58.62;96134.47;5023130;28;20133;-78
2023/10/07 06:22:48;;;;;;;13.77;7.72;;;;;;;13.07;58.54;96158.69;5002589;28;20037;-78
2023/10/07 06:25:18;;;;;;;19.50;8.32;;;;;;;13.31;58.79;96187.50;5012468;28;20500;-78
2023/10/07 06:27:44;;;;;;;22.67;8.68;;;;;;;13.41;58.46;96187.53;5029245;28;20215;-78
2023/10/07 06:30:20;;;;;;;20.42;7.80;;;;;;;13.30;58.65;96183.25;5006683;28;20168;-78
2023/10/07 06:32:54;;;;;;;19.27;8.02;;;;;;;13.10;58.79;96146.72;5015289;28;20128;-78
2023/10/07 06:35:25;;;;;;;23.27;8.30;;;;;;;13.36;58.59;96195.50;5029462;28;20480;-78
2023/10/07 06:37:57;;;;;;;17.85;8.10;;;;;;;13.43;58.59;96193.38;5027923;28;20499;-77
2023/10/07 06:40:28;;;;;;;21.45;9.05;;;;;;;13.47;58.76;96197.13;4995836;28;20038;-78
2023/10/07 06:42:56;;;;;;;20.15;8.68;;;;;;;13.14;58.92;96159.28;5024766;28;20034;-78
2023/10/07 06:45:35;;;;;;;20.80;8.00;;;;;;;13.45;58.82;96189.38;5017500;28;20515;-77
2023/10/07 06:48:02;;;;;;;16.15;8.15;;;;;;;13.66;58.73;96192.84;4991659;28;20041;-78
2023/10/07 06:50:28;;;;;;;24.48;8.73;;;;;;;13.49;59.22;96176.34;4996591;28;20140;-78
2023/10/07 06:52:57;;;;;;;18.90;7.80;;;;;;;13.48;58.98;96158.75;5011130;28;20117;-77
2023/10/07 06:55:23;;;;;;;16.20;8.70;;;;;;;13.64;58.68;96176.34;5006087;28;20049;-77
2023/10/07 06:57:56;;;;;;;16.20;8.50;;;;;;;13.39;59.12;96115.06;5011655;28;20034;-77
2023/10/07 07:00:27;;;;;;;19.58;9.10;;;;;;;13.88;58.68;96188.00;5005663;28;20041;-77
2023/10/07 07:03:09;;;;;;;13.05;7.85;;;;;;;13.42;59.07;96102.00;5013262;28;20403;-77
2023/10/07 07:05:35;;;;;;;;;;;;;;;14.01;58.45;96184.00;5014473;28;20076;-77
2023/10/07 07:08:03;;;;;;;20.27;8.95;;;;;;;13.93;58.08;96155.22;5012642;28;19971;-77
2023/10/07 07:10:31;;;;;;;21.88;8.63;;;;;;;13.83;58.36;96123.22;5013761;28;20040;-77
2023/10/07 07:13:12;;;;;;;20.13;8.40;;;;;;;14.11;58.19;96183.19;5023393;28;20116;-77
2023/10/07 07:15:38;;;;;;;25.55;9.38;;;;;;;13.77;58.11;96114.47;4989625;28;20078;-77
2023/10/07 07:23:32;;;;;;;19.40;9.25;;;;;;;14.32;57.55;96174.03;5026916;28;20049;-77
2023/10/07 07:28:34;;;;;;;16.90;8.15;;;;;;;14.16;58.13;96151.16;5011030;28;20503;-77
2023/10/07 07:31:00;;;;;;;20.85;9.15;;;;;;;14.13;58.07;96139.16;5004245;28;20046;-77
2023/10/07 07:33:34;;;;;;;23.17;8.43;;;;;;;14.22;58.01;96134.84;5008828;28;20440;-77
2023/10/07 07:36:06;;;;;;;18.17;8.48;;;;;;;14.05;57.88;96106.91;5012543;28;20115;-77
2023/10/07 07:38:43;;;;;;;;;;;;;;;14.45;57.95;96170.00;5023214;28;20113;-77
2023/10/07 07:41:09;;;;;;;16.88;8.05;;;;;;;14.26;57.78;96137.78;5004599;28;19924;-77
2023/10/07 07:43:39;;;;;;;23.25;8.70;;;;;;;14.57;57.95;96173.19;5029111;28;20120;-77
2023/10/07 07:46:26;;;;;;;27.95;8.82;;;;;;;14.59;57.79;96152.31;5017125;28;20564;-77
2023/10/07 07:49:08;;;;;;;21.58;9.38;;;;;;;14.38;57.70;96124.94;4998398;28;20042;-77
2023/10/07 07:51:41;;;;;;;18.90;8.45;;;;;;;14.57;57.55;96138.47;5013858;28;20215;-78
2023/10/07 07:54:10;;;;;;;19.95;10.15;;;;;;;14.61;57.80;96142.97;5008592;28;20069;-77
2023/10/07 07:56:37;;;;;;;16.20;9.32;;;;;;;14.78;57.75;96157.84;5017332;28;20067;-77
2023/10/07 07:59:13;;;;;;;27.30;9.77;;;;;;;14.38;57.94;96116.09;5016162;28;20037;-77
2023/10/07 08:01:46;;;;;;;15.65;8.15;;;;;;;14.72;57.81;96161.63;5024356;28;20071;-77
2023/10/07 08:04:34;;;;;;;21.67;9.57;;;;;;;14.79;57.23;96156.78;5019893;28;20038;-77
2023/10/07 08:07:05;;;;;;;17.90;9.50;;;;;;;14.34;57.42;96083.84;5025649;28;20120;-77
2023/10/07 08:09:36;;;;;;;18.02;9.57;;;;;;;14.53;57.12;96118.72;5008449;28;20060;-77
2023/10/07 08:12:03;;;;;;;14.68;8.73;;;;;;;14.79;57.10;96144.22;5033569;28;20052;-77
2023/10/07 08:14:28;;;;;;;22.70;9.10;;;;;;;14.92;57.18;96143.59;5015322;28;20123;-77
2023/10/07 08:16:53;;;;;;;19.65;8.90;;;;;;;14.62;56.98;96101.06;5031335;28;20488;-78
2023/10/07 08:19:20;;;;;;;18.10;9.23;;;;;;;14.82;56.88;96142.84;5015338;28;20061;-77
2023/10/07 08:21:53;;;;;;;20.20;10.52;;;;;;;14.89;57.07;96154.03;5025049;28;20057;-77
2023/10/07 08:24:22;;;;;;;17.88;9.55;;;;;;;14.89;56.95;96157.50;5016533;28;20042;-77
2023/10/07 08:26:48;;;;;;;19.38;9.60;;;;;;;14.51;57.37;96094.19;4997501;28;20491;-77
2023/10/07 08:29:34;;;;;;;15.80;9.82;;;;;;;14.53;57.53;96095.50;4997134;28;20042;-77
2023/10/07 08:32:14;;;;;;;23.35;9.10;;;;;;;14.99;57.23;96135.28;5030102;28;20059;-77
2023/10/07 08:34:47;;;;;;;18.52;9.55;;;;;;;15.09;56.96;96118.38;5012606;28;20106;-77
2023/10/07 08:37:16;;;;;;;21.65;8.57;;;;;;;15.24;56.88;96129.75;4999087;28;20034;-77
2023/10/07 08:39:45;;;;;;;24.65;10.48;;;;;;;14.77;56.68;96054.78;5015503;28;20092;-78
2023/10/07 08:42:25;;;;;;;21.33;9.55;;;;;;;15.32;56.27;96120.34;5021873;28;20049;-78
2023/10/07 08:44:57;;;;;;;19.60;9.48;;;;;;;15.29;56.14;96118.22;5032044;28;20051;-78
2023/10/07 08:47:26;;;;;;;19.80;9.27;;;;;;;15.20;56.10;96103.84;5025233;28;20462;-78
2023/10/07 08:49:52;;;;;;;20.27;8.95;;;;;;;15.25;55.99;96106.50;5018954;28;20037;-77
2023/10/07 08:52:20;;;;;;;22.20;9.80;;;;;;;15.32;55.59;96082.91;5009537;28;20056;-77
2023/10/07 08:54:47;;;;;;;19.58;10.15;;;;;;;15.57;55.48;96103.28;5011973;28;20107;-78
2023/10/07 08:57:19;;;;;;;19.23;8.60;;;;;;;15.65;55.56;96110.69;4997912;28;20077;-78
2023/10/07 08:59:52;;;;;;;17.65;9.43;;;;;;;15.76;55.04;96112.19;5012913;28;20049;-77
2023/10/07 09:02:28;;;;;;;14.57;9.88;;;;;;;15.69;54.88;96095.69;5013336;28;20176;-77
2023/10/07 09:05:06;;;;;;;26.55;9.48;;;;;;;15.72;54.75;96089.75;4999372;28;20048;-77
2023/10/07 09:07:32;;;;;;;21.33;9.27;;;;;;;15.72;54.59;96101.25;5023522;28;20053;-78
2023/10/07 09:10:14;;;;;;;25.45;9.13;;;;;;;15.70;54.25;96070.53;5011731;28;20079;-77
2023/10/07 09:12:46;;;;;;;21.13;10.65;;;;;;;15.95;54.44;96097.00;5020381;28;20520;-78
2023/10/07 09:15:25;;;;;;;21.48;10.07;;;;;;;15.97;54.25;96105.53;5025719;28;20038;-78
2023/10/07 09:17:51;;;;;;;17.20;8.77;;;;;;;16.13;53.75;96098.13;4998826;28;20041;-78
2023/10/07 09:20:29;;;;;;;23.77;8.60;;;;;;;15.92;53.07;96067.34;5012509;28;20058;-78
2023/10/07 09:23:01;;;;;;;18.92;8.70;;;;;;;16.10;52.62;96093.34;5025204;28;20126;-78
2023/10/07 09:25:33;;;;;;;23.85;8.48;;;;;;;15.96;51.92;96047.75;5022961;28;20041;-78
2023/10/07 09:28:01;;;;;;;24.08;9.38;;;;;;;16.01;52.44;96074.47;5031694;28;20107;-78
2023/10/07 09:30:35;;;;;;;24.95;9.80;;;;;;;16.03;52.50;96056.25;5026123;28;20491;-78
2023/10/07 09:33:06;;;;;;;15.60;8.05;;;;;;;16.31;52.47;96091.25;5019447;28;20103;-78
2023/10/07 09:35:33;;;;;;;22.23;9.18;;;;;;;16.33;51.17;96075.66;5022576;28;20048;-78
2023/10/07 09:38:00;;;;;;;26.65;9.38;;;;;;;16.14;51.33;96046.22;5013903;28;20530;-78
2023/10/07 09:43:33;;;;;;;19.42;8.50;;;;;;;16.60;50.23;96081.19;5029035;28;20049;-78
2023/10/07 09:45:58;;;;;;;14.70;8.10;;;;;;;16.52;49.39;96071.94;5011896;28;20046;-78
2023/10/07 09:48:30;;;;;;;21.67;7.20;;;;;;;16.90;48.65;96074.63;4997736;28;20535;-78
2023/10/07 09:50:58;;;;;;;14.65;6.95;;;;;;;17.48;48.39;96069.63;5027006;28;20057;-75
2023/10/07 09:53:41;;;;;;;15.32;6.93;;;;;;;18.68;46.04;96081.03;5019977;28;20056;-75
2023/10/07 09:56:32;;;;;;;14.43;7.53;;;;;;;20.21;43.44;96057.25;5020574;28;20107;-75
2023/10/07 09:59:25;;;;;;;22.15;7.22;;;;;;;21.49;39.82;96063.03;5028301;28;20107;-75
2023/10/07 10:02:25;;;;;;;19.65;7.15;;;;;;;22.92;36.78;96059.47;5028933;28;20056;-75
2023/10/07 10:05:13;;;;;;;17.48;7.85;;;;;;;23.37;34.85;96057.66;5009936;28;20076;-75
2023/10/07 10:08:11;;;;;;;12.32;6.00;;;;;;;24.44;32.86;96043.03;5013360;28;20053;-76
2023/10/07 10:10:44;;;;;;;23.60;6.90;;;;;;;25.30;31.28;96019.97;5014541;28;20042;-76
2023/10/07 10:16:18;;;;;;;12.60;6.55;;;;;;;25.65;30.27;96036.41;5014442;28;20125;-76
2023/10/07 10:18:50;;;;;;;19.92;6.28;;;;;;;25.86;30.21;96038.13;5011802;28;20033;-76
2023/10/07 10:21:22;;;;;;;12.15;5.72;;;;;;;26.26;29.70;96027.84;5006087;28;20042;-76
2023/10/07 10:23:51;;;;;;;13.13;5.97;;;;;;;26.42;29.04;95974.22;5002566;28;20125;-76
2023/10/07 10:26:22;;;;;;;11.98;5.75;;;;;;;26.44;29.53;95993.69;5011824;28;20087;-76
2023/10/07 10:29:22;;;;;;;17.85;6.18;;;;;;;26.24;29.31;96000.22;5031739;28;20041;-76
2023/10/07 10:31:58;;;;;;;14.68;6.18;;;;;;;25.74;29.73;96001.72;5001772;28;20143;-76
2023/10/07 10:34:26;;;;;;;17.52;6.05;;;;;;;26.48;29.21;95986.38;5029950;28;20069;-76
2023/10/07 10:36:55;;;;;;;12.55;5.90;;;;;;;26.71;28.94;95986.47;5013074;28;20045;-76
2023/10/07 10:39:26;;;;;;;14.57;6.53;;;;;;;26.66;28.83;95983.25;5001360;28;20049;-75
2023/10/07 10:41:56;;;;;;;11.25;5.10;;;;;;;26.12;29.67;95964.97;4997221;28;20053;-76
2023/10/07 10:44:22;;;;;;;13.70;6.43;;;;;;;26.13;29.84;95953.75;5012092;28;20046;-76
2023/10/07 10:46:51;;;;;;;9.68;5.47;;;;;;;26.77;29.01;95966.03;5011800;28;20037;-76
2023/10/07 10:49:20;;;;;;;16.08;6.03;;;;;;;26.90;29.21;95942.19;4994906;28;20048;-76
2023/10/07 10:51:50;;;;;;;10.52;6.13;;;;;;;26.99;28.44;95956.38;5011454;28;20037;-75
2023/10/07 10:54:17;;;;;;;14.70;5.07;;;;;;;26.74;29.22;95950.41;5015818;28;20474;-76
2023/10/07 10:57:00;;;;;;;18.40;6.00;;;;;;;26.41;29.15;95912.00;5015804;28;20083;-76
2023/10/07 10:59:42;;;;;;;14.25;6.28;;;;;;;26.41;28.80;95866.56;5006021;28;20060;-75
2023/10/07 11:02:15;;;;;;;16.10;6.45;;;;;;;27.14;28.94;95927.47;5020455;28;20041;-77
2023/10/07 11:04:43;;;;;;;17.08;5.82;;;;;;;27.13;28.86;95932.13;5013091;28;20044;-75
2023/10/07 11:07:09;;;;;;;14.88;5.60;;;;;;;27.45;28.37;95932.72;5015053;28;20095;-75
2023/10/07 11:09:37;;;;;;;14.10;6.25;;;;;;;27.11;28.73;95895.53;5004721;28;20133;-76
2023/10/07 11:12:09;;;;;;;12.75;5.30;;;;;;;27.48;28.48;95906.66;5012339;28;20045;-75
2023/10/07 11:14:36;;;;;;;14.88;4.97;;;;;;;27.94;28.34;95905.47;5005791;28;20147;-75
2023/10/07 11:17:03;;;;;;;13.80;5.68;;;;;;;27.51;28.12;95906.72;4998102;28;20046;-75
2023/10/07 11:19:30;;;;;;;11.68;4.78;;;;;;;27.19;28.78;95917.06;4995944;28;20409;-75
2023/10/07 11:21:57;;;;;;;15.52;5.32;;;;;;;27.25;27.87;95895.78;5014003;28;20489;-76
2023/10/07 11:24:27;;;;;;;14.25;5.22;;;;;;;27.46;28.19;95881.75;5005256;28;20467;-76
2023/10/07 11:26:59;;;;;;;14.82;4.78;;;;;;;26.95;28.50;95862.97;5011883;28;20571;-75
2023/10/07 11:29:29;;;;;;;13.25;4.72;;;;;;;27.06;28.52;95850.34;5012940;28;20037;-76
2023/10/07 11:32:02;;;;;;;10.68;5.65;;;;;;;27.36;28.36;95855.91;5017664;28;20038;-76
2023/10/07 11:34:50;;;;;;;13.85;5.07;;;;;;;27.92;27.47;95872.34;5008443;28;20096;-76
2023/10/07 11:37:21;;;;;;;19.05;5.47;;;;;;;28.19;27.57;95866.91;5018757;28;20560;-75
2023/10/07 11:39:47;;;;;;;11.00;4.97;;;;;;;28.14;27.00;95859.81;5017879;28;20041;-75
2023/10/07 11:42:17;;;;;;;10.35;5.13;;;;;;;27.42;27.37;95810.84;5010567;28;20515;-76
2023/10/07 11:44:47;;;;;;;12.23;4.68;;;;;;;27.23;27.37;95803.56;5014464;28;20416;-76
2023/10/07 11:47:16;;;;;;;18.02;4.65;;;;;;;27.31;27.35;95828.97;5007844;28;20037;-76
2023/10/07 11:49:46;;;;;;;11.32;4.60;;;;;;;27.58;26.85;95832.53;5029617;28;20042;-76
2023/10/07 11:52:12;;;;;;;10.10;5.15;;;;;;;27.41;27.52;95843.91;5012152;28;20045;-76
2023/10/07 11:54:39;;;;;;;12.20;4.85;;;;;;;27.59;27.29;95818.53;5016348;28;20068;-76
2023/10/07 11:57:06;;;;;;;7.60;4.20;;;;;;;28.13;26.59;95836.41;5006934;28;20484;-76
2023/10/07 11:59:35;;;;;;;12.90;4.63;;;;;;;28.30;26.38;95841.31;4996881;28;20038;-76
2023/10/07 12:02:09;;;;;;;20.20;5.05;;;;;;;28.31;26.77;95820.28;5002049;28;20678;-76
2023/10/07 12:04:38;;;;;;;12.77;4.43;;;;;;;28.13;26.77;95817.34;5011294;28;20068;-76
2023/10/07 12:07:07;;;;;;;14.13;4.50;;;;;;;28.55;25.97;95830.72;4994138;28;20065;-76
2023/10/07 12:09:33;;;;;;;11.48;4.38;;;;;;;28.24;26.06;95803.84;5014094;28;20061;-76
2023/10/07 12:11:59;;;;;;;9.98;4.90;;;;;;;28.23;26.04;95824.88;5011681;28;20458;-79
2023/10/07 12:14:27;;;;;;;7.28;3.67;;;;;;;28.21;25.90;95829.16;4997004;28;20037;-78
2023/10/07 12:16:53;;;;;;;11.23;3.78;;;;;;;28.24;25.96;95828.38;4996898;28;20045;-78
2023/10/07 12:19:18;;;;;;;17.25;4.40;;;;;;;27.57;26.40;95800.97;5019556;28;20111;-78
2023/10/07 12:21:47;;;;;;;8.48;4.00;;;;;;;26.87;27.20;95818.47;5030302;28;20081;-78